Time;durP1;ratioP1;P1;durP2;ratioP2;P2;SDS_P1;SDS_P2;PMS_P1;PMS_P2;Temp;Humidity;BMP_temperature;BMP_pressure;BME280_temperature;BME280_humidity;BME280_pressure;Samples;Min_cycle;Max_cycle;Signal;HPM_P1;HPM_P2
2023/10/24 00:02:22;;;;;;;1.53;1.00;;;13.90;98.20;;;;;;4996655;28;21101;-86
2023/10/24 00:04:49;;;;;;;1.57;1.00;;;13.90;98.20;;;;;;4995642;28;20473;-86
2023/10/24 00:07:16;;;;;;;1.60;1.00;;;13.90;98.20;;;;;;4996287;28;20592;-85
2023/10/24 00:09:43;;;;;;;1.50;1.00;;;14.00;98.20;;;;;;4992782;28;20779;-86
2023/10/24 00:12:10;;;;;;;1.57;1.00;;;13.90;98.20;;;;;;4986853;28;21010;-86
2023/10/24 00:14:37;;;;;;;1.57;1.00;;;14.00;98.20;;;;;;4990645;28;20469;-84
2023/10/24 00:17:06;;;;;;;1.53;1.00;;;13.90;98.20;;;;;;4975506;28;20570;-85
2023/10/24 00:19:34;;;;;;;1.60;1.10;;;13.90;98.20;;;;;;4985137;28;20856;-85
2023/10/24 00:22:01;;;;;;;1.60;1.10;;;13.90;98.20;;;;;;4973891;28;20481;-85
2023/10/24 00:24:28;;;;;;;1.57;1.00;;;13.90;98.20;;;;;;4987866;28;20467;-85
2023/10/24 00:26:57;;;;;;;1.57;1.00;;;13.90;98.20;;;;;;4984178;28;21140;-85
2023/10/24 00:29:24;;;;;;;1.60;1.10;;;13.90;98.20;;;;;;4992833;28;21041;-86
2023/10/24 00:31:51;;;;;;;1.53;1.00;;;13.90;98.20;;;;;;4984156;28;20479;-85
2023/10/24 00:34:17;;;;;;;1.60;1.20;;;13.90;98.20;;;;;;4993232;28;20981;-86
2023/10/24 00:36:48;;;;;;;1.60;1.00;;;13.90;98.20;;;;;;4985045;28;21071;-86
2023/10/24 00:39:15;;;;;;;1.60;1.10;;;13.90;98.20;;;;;;4995911;28;20487;-85
2023/10/24 00:41:42;;;;;;;1.50;1.00;;;13.90;98.20;;;;;;4978334;28;20488;-85
2023/10/24 00:44:09;;;;;;;1.57;1.00;;;13.80;98.20;;;;;;4987462;28;20817;-85
2023/10/24 00:46:39;;;;;;;1.50;1.00;;;13.90;98.20;;;;;;4985122;28;20750;-86
2023/10/24 00:49:07;;;;;;;1.60;1.10;;;13.80;98.20;;;;;;5001583;28;21038;-86
2023/10/24 00:51:42;;;;;;;1.50;1.00;;;13.80;98.20;;;;;;4979509;28;21061;-87
2023/10/24 00:54:19;;;;;;;1.57;1.00;;;13.80;98.20;;;;;;4986981;28;20470;-86
2023/10/24 00:56:50;;;;;;;1.57;1.00;;;13.80;98.20;;;;;;4984980;28;20483;-85
2023/10/24 00:59:18;;;;;;;1.57;1.10;;;13.80;98.20;;;;;;4996878;28;20560;-85
2023/10/24 01:01:45;;;;;;;1.50;1.00;;;13.80;98.20;;;;;;4985649;28;20484;-86
2023/10/24 01:04:13;;;;;;;1.53;1.00;;;13.90;98.20;;;;;;4999694;28;20469;-85
2023/10/24 01:06:40;;;;;;;1.60;1.30;;;13.90;98.20;;;;;;4986158;28;21006;-85
2023/10/24 01:09:07;;;;;;;1.53;1.00;;;13.90;98.20;;;;;;4997280;28;21070;-84
2023/10/24 01:11:35;;;;;;;1.53;1.00;;;13.80;98.20;;;;;;4982973;28;20483;-85
2023/10/24 01:14:02;;;;;;;1.50;1.00;;;13.80;98.20;;;;;;4990769;28;21077;-85
2023/10/24 01:16:28;;;;;;;1.50;1.00;;;13.80;98.20;;;;;;4986034;28;20576;-84
2023/10/24 01:18:55;;;;;;;1.60;1.00;;;13.80;98.20;;;;;;4998348;28;20485;-87
2023/10/24 01:21:22;;;;;;;1.60;1.10;;;13.80;98.20;;;;;;4986006;28;20487;-85
2023/10/24 01:23:52;;;;;;;1.57;1.00;;;13.80;98.20;;;;;;5009606;28;20571;-86
2023/10/24 01:26:20;;;;;;;1.50;1.00;;;13.80;98.20;;;;;;4979848;28;21000;-85
2023/10/24 01:28:47;;;;;;;1.57;1.00;;;13.80;98.20;;;;;;4986820;28;20579;-86
2023/10/24 01:31:14;;;;;;;1.57;1.00;;;13.80;98.20;;;;;;4981508;28;20487;-86
2023/10/24 01:33:41;;;;;;;1.57;1.00;;;13.70;98.20;;;;;;5001262;28;20476;-85
2023/10/24 01:36:24;;;;;;;1.53;1.00;;;13.70;98.20;;;;;;4975735;28;20933;-85
2023/10/24 01:38:52;;;;;;;1.50;1.00;;;13.70;98.20;;;;;;4983865;28;20496;-87
2023/10/24 01:41:20;;;;;;;1.60;1.10;;;13.70;98.20;;;;;;4986440;28;20493;-86
2023/10/24 01:43:47;;;;;;;1.60;1.30;;;13.70;98.20;;;;;;5005209;28;20471;-86
2023/10/24 01:46:13;;;;;;;1.60;1.30;;;13.70;98.20;;;;;;4982787;28;20476;-86
2023/10/24 01:48:41;;;;;;;1.60;1.00;;;13.70;98.20;;;;;;5005111;28;21014;-85
2023/10/24 01:51:08;;;;;;;1.60;1.00;;;13.70;98.20;;;;;;4982512;28;20966;-85
2023/10/24 01:53:34;;;;;;;1.53;1.10;;;13.70;98.20;;;;;;5010607;28;20465;-86
2023/10/24 01:56:03;;;;;;;2.77;2.50;;;13.60;98.20;;;;;;4973556;28;20465;-86
2023/10/24 01:58:29;;;;;;;1.50;1.00;;;13.60;98.20;;;;;;4997029;28;20477;-85
2023/10/24 02:00:56;;;;;;;1.57;1.00;;;13.50;98.20;;;;;;4978015;28;20924;-85
2023/10/24 02:03:23;;;;;;;1.50;0.97;;;13.60;98.20;;;;;;5005882;28;20461;-85
2023/10/24 02:05:50;;;;;;;1.60;1.10;;;13.50;98.20;;;;;;4981078;28;20469;-84
2023/10/24 02:08:16;;;;;;;1.50;1.00;;;13.50;98.20;;;;;;4986108;28;20491;-85
2023/10/24 02:10:43;;;;;;;1.53;1.10;;;13.50;98.20;;;;;;4991482;28;20463;-85
2023/10/24 02:13:11;;;;;;;1.53;1.00;;;13.50;98.20;;;;;;5008259;28;20481;-86
2023/10/24 02:15:38;;;;;;;1.60;1.10;;;13.50;98.20;;;;;;4990101;28;20461;-85
2023/10/24 02:18:05;;;;;;;1.60;1.10;;;13.60;98.20;;;;;;5005261;28;20482;-85
2023/10/24 02:20:32;;;;;;;1.53;1.00;;;13.60;98.20;;;;;;4991036;28;20912;-86
2023/10/24 02:22:59;;;;;;;1.53;1.00;;;13.60;98.20;;;;;;4980516;28;20491;-86
2023/10/24 02:25:26;;;;;;;1.50;1.00;;;13.60;98.20;;;;;;4992051;28;20794;-85
2023/10/24 02:27:53;;;;;;;1.60;1.10;;;13.60;98.20;;;;;;4977010;28;20481;-86
2023/10/24 02:30:22;;;;;;;1.57;1.10;;;13.60;98.20;;;;;;4992782;28;20600;-84
2023/10/24 02:32:49;;;;;;;1.53;1.00;;;13.60;98.20;;;;;;5007040;28;20550;-85
2023/10/24 02:35:16;;;;;;;1.60;1.10;;;13.60;98.20;;;;;;4992890;28;20492;-84
2023/10/24 02:37:43;;;;;;;1.60;1.13;;;13.60;98.20;;;;;;4995126;28;21069;-85
2023/10/24 02:40:11;;;;;;;1.57;1.00;;;13.60;98.20;;;;;;4999066;28;20523;-85
2023/10/24 02:42:38;;;;;;;1.60;1.10;;;13.60;98.20;;;;;;4982480;28;20489;-86
2023/10/24 02:45:05;;;;;;;1.50;1.10;;;13.60;98.20;;;;;;4992771;28;20475;-86
2023/10/24 02:47:33;;;;;;;1.57;1.10;;;13.60;98.20;;;;;;4980475;28;20520;-85
2023/10/24 02:50:00;;;;;;;1.60;1.00;;;13.60;98.20;;;;;;4991324;28;20818;-86
2023/10/24 02:52:28;;;;;;;1.53;1.00;;;13.60;98.20;;;;;;5004053;28;20905;-85
2023/10/24 02:54:55;;;;;;;1.60;1.07;;;13.60;98.20;;;;;;4994705;28;21028;-85
2023/10/24 02:57:22;;;;;;;1.53;1.00;;;13.60;98.20;;;;;;4992902;28;20492;-85
2023/10/24 02:59:50;;;;;;;1.50;1.00;;;13.60;98.20;;;;;;4994921;28;20485;-86
2023/10/24 03:02:17;;;;;;;1.50;1.00;;;13.60;98.20;;;;;;5003710;28;20478;-85
2023/10/24 03:04:47;;;;;;;1.53;1.00;;;13.60;98.20;;;;;;5003729;28;20515;-84
2023/10/24 03:07:14;;;;;;;1.60;1.10;;;13.60;98.20;;;;;;5007627;28;20480;-83
2023/10/24 03:09:41;;;;;;;1.60;1.10;;;13.60;98.20;;;;;;5005753;28;20552;-84
2023/10/24 03:12:09;;;;;;;1.60;1.10;;;13.60;98.20;;;;;;4990376;28;20473;-84
2023/10/24 03:14:35;;;;;;;1.60;1.03;;;13.60;98.20;;;;;;5002442;28;20532;-85
2023/10/24 03:17:02;;;;;;;1.50;1.00;;;13.60;98.20;;;;;;4987665;28;20508;-85
2023/10/24 03:19:31;;;;;;;1.57;1.00;;;13.50;98.20;;;;;;4997013;28;20476;-85
2023/10/24 03:21:59;;;;;;;1.53;1.00;;;13.50;98.20;;;;;;4991065;28;20841;-85
2023/10/24 03:24:29;;;;;;;1.57;1.10;;;13.50;98.20;;;;;;5001028;28;20457;-85
2023/10/24 03:26:56;;;;;;;1.57;1.00;;;13.50;98.20;;;;;;4989320;28;20531;-85
2023/10/24 03:29:23;;;;;;;1.50;1.00;;;13.50;98.20;;;;;;4992740;28;20785;-86
2023/10/24 03:31:50;;;;;;;1.60;1.00;;;13.50;98.20;;;;;;4994115;28;20496;-85
2023/10/24 03:34:16;;;;;;;1.60;1.10;;;13.50;98.20;;;;;;5006966;28;20552;-85
2023/10/24 03:36:43;;;;;;;1.50;1.00;;;13.50;98.20;;;;;;4993895;28;20495;-86
2023/10/24 03:39:11;;;;;;;1.60;1.10;;;13.50;98.20;;;;;;5003238;28;20523;-87
2023/10/24 03:41:39;;;;;;;1.57;1.00;;;13.50;98.20;;;;;;4991387;28;20483;-87
2023/10/24 03:44:13;;;;;;;1.57;1.00;;;13.50;98.20;;;;;;5004315;28;20552;-87
2023/10/24 03:46:40;;;;;;;1.53;1.00;;;13.50;98.20;;;;;;4994219;28;21011;-87
2023/10/24 03:49:13;;;;;;;1.60;1.10;;;13.50;98.20;;;;;;5002781;28;20489;-86
2023/10/24 03:51:48;;;;;;;1.50;1.00;;;13.50;98.20;;;;;;4994911;28;20479;-85
2023/10/24 03:54:18;;;;;;;1.60;1.20;;;13.50;98.20;;;;;;5006142;28;21083;-86
2023/10/24 03:56:45;;;;;;;1.50;1.00;;;13.40;98.20;;;;;;4993682;28;20502;-86
2023/10/24 03:59:12;;;;;;;1.57;1.00;;;13.40;98.20;;;;;;5006397;28;21752;-85
2023/10/24 04:01:40;;;;;;;1.57;1.00;;;13.40;98.20;;;;;;4999979;28;20852;-85
2023/10/24 04:04:09;;;;;;;1.53;1.00;;;13.40;98.20;;;;;;5010683;28;20843;-84
2023/10/24 04:06:36;;;;;;;1.53;1.00;;;13.40;98.20;;;;;;4987341;28;20481;-86
2023/10/24 04:09:06;;;;;;;1.53;1.03;;;13.40;98.20;;;;;;4994127;28;20496;-86
2023/10/24 04:11:37;;;;;;;1.57;1.00;;;13.40;98.20;;;;;;4994983;28;20526;-85
2023/10/24 04:14:05;;;;;;;1.57;1.00;;;13.40;98.20;;;;;;5010757;28;20947;-85
2023/10/24 04:16:32;;;;;;;1.53;1.00;;;13.30;98.20;;;;;;4981539;28;20915;-84
2023/10/24 04:18:59;;;;;;;1.53;1.00;;;13.30;98.20;;;;;;5003822;28;20933;-85
2023/10/24 04:21:49;;;;;;;1.60;1.10;;;13.30;98.20;;;;;;4960455;28;20480;-86
2023/10/24 04:24:16;;;;;;;1.53;1.00;;;13.30;98.20;;;;;;5001036;28;20472;-84
2023/10/24 04:26:44;;;;;;;1.57;1.03;;;13.30;98.20;;;;;;4987909;28;20487;-83
2023/10/24 04:29:11;;;;;;;1.53;1.00;;;13.20;98.20;;;;;;4997461;28;20488;-83
2023/10/24 04:31:38;;;;;;;1.53;1.00;;;13.20;98.20;;;;;;4989114;28;20514;-84
2023/10/24 04:34:09;;;;;;;1.53;1.00;;;13.20;98.20;;;;;;5002146;28;20697;-83
2023/10/24 04:36:35;;;;;;;1.60;1.10;;;13.20;98.20;;;;;;4987960;28;20476;-85
2023/10/24 04:39:08;;;;;;;1.57;1.00;;;13.20;98.20;;;;;;5003116;28;20564;-84
2023/10/24 04:41:37;;;;;;;1.50;1.03;;;13.20;98.20;;;;;;4984041;28;20604;-84
2023/10/24 04:44:06;;;;;;;1.50;1.00;;;13.20;98.20;;;;;;4997017;28;20556;-83
2023/10/24 04:46:43;;;;;;;1.60;1.00;;;13.20;98.20;;;;;;4983723;28;20484;-83
2023/10/24 04:49:10;;;;;;;1.60;1.00;;;13.20;98.20;;;;;;4995190;28;20476;-84
2023/10/24 04:51:40;;;;;;;1.50;1.00;;;13.20;98.20;;;;;;4987189;28;20492;-84
2023/10/24 04:54:08;;;;;;;1.50;1.00;;;13.30;98.20;;;;;;4999194;28;21390;-86
2023/10/24 04:56:38;;;;;;;1.50;1.10;;;13.30;98.20;;;;;;4983285;28;20478;-86
2023/10/24 04:59:09;;;;;;;1.50;1.00;;;13.30;98.20;;;;;;4995025;28;20482;-84
2023/10/24 05:01:39;;;;;;;1.53;1.00;;;13.30;98.20;;;;;;4985375;28;20480;-86
2023/10/24 05:04:10;;;;;;;1.60;1.10;;;13.30;98.20;;;;;;4996107;28;20470;-85
2023/10/24 05:06:44;;;;;;;1.53;1.00;;;13.30;98.20;;;;;;4980991;28;20491;-84
2023/10/24 05:09:23;;;;;;;1.57;1.00;;;13.30;98.20;;;;;;4991522;28;20485;-85
2023/10/24 05:11:50;;;;;;;1.53;1.00;;;13.30;98.20;;;;;;4985776;28;21002;-85
2023/10/24 05:14:19;;;;;;;1.50;0.90;;;13.20;98.20;;;;;;4995438;28;20472;-85
2023/10/24 05:16:49;;;;;;;1.60;1.00;;;13.20;98.20;;;;;;4983470;28;20496;-85
2023/10/24 05:19:16;;;;;;;1.60;1.10;;;13.10;98.20;;;;;;4996451;28;21038;-84
2023/10/24 05:21:55;;;;;;;1.53;1.00;;;13.10;98.20;;;;;;4984480;28;20518;-85
2023/10/24 05:24:22;;;;;;;1.60;1.10;;;13.10;98.20;;;;;;4997143;28;20511;-84
2023/10/24 05:26:49;;;;;;;1.50;1.00;;;13.00;98.20;;;;;;4979764;28;20557;-85
2023/10/24 05:29:16;;;;;;;1.53;1.00;;;13.00;98.20;;;;;;4997867;28;20495;-83
2023/10/24 05:31:44;;;;;;;1.53;1.10;;;13.00;98.20;;;;;;4986931;28;20555;-84
2023/10/24 05:34:11;;;;;;;1.50;0.90;;;13.00;98.20;;;;;;5001574;28;20461;-84
2023/10/24 05:36:40;;;;;;;1.60;1.10;;;12.90;98.20;;;;;;4994409;28;20490;-83
2023/10/24 05:39:09;;;;;;;1.57;1.00;;;12.90;98.20;;;;;;5007811;28;20476;-83
2023/10/24 05:41:36;;;;;;;1.57;1.10;;;12.90;98.20;;;;;;4992636;28;20472;-84
2023/10/24 05:44:03;;;;;;;1.53;1.00;;;12.90;98.20;;;;;;5005747;28;20516;-85
2023/10/24 05:46:30;;;;;;;1.57;1.10;;;12.90;98.20;;;;;;4990126;28;20476;-84
2023/10/24 05:48:59;;;;;;;1.50;1.00;;;12.90;98.20;;;;;;5004973;28;20842;-84
2023/10/24 05:51:35;;;;;;;1.60;1.10;;;12.80;98.20;;;;;;4992603;28;20476;-83
2023/10/24 05:54:02;;;;;;;1.60;1.10;;;12.90;98.20;;;;;;5007351;28;21035;-84
2023/10/24 05:56:29;;;;;;;1.50;1.00;;;12.80;98.20;;;;;;4992635;28;20476;-84
2023/10/24 05:58:56;;;;;;;1.50;1.07;;;12.80;98.20;;;;;;5006648;28;20491;-84
2023/10/24 06:01:23;;;;;;;1.60;1.10;;;12.80;98.20;;;;;;4989575;28;20491;-84
2023/10/24 06:03:50;;;;;;;1.53;1.00;;;12.80;98.20;;;;;;5008688;28;20594;-84
2023/10/24 06:06:18;;;;;;;1.57;1.10;;;12.80;98.20;;;;;;5028651;22;20876;-84
2023/10/24 06:08:45;;;;;;;1.57;1.10;;;12.80;98.20;;;;;;5036532;28;20467;-83
2023/10/24 06:11:15;;;;;;;1.57;1.00;;;12.90;98.20;;;;;;5021113;28;20479;-82
2023/10/24 06:13:42;;;;;;;1.57;1.00;;;12.90;98.20;;;;;;5027874;28;20809;-82
2023/10/24 06:16:10;;;;;;;1.60;1.00;;;12.90;98.20;;;;;;5017463;28;20509;-83
2023/10/24 06:18:37;;;;;;;1.60;1.00;;;12.90;98.20;;;;;;5037482;28;20550;-82
2023/10/24 06:21:07;;;;;;;1.50;0.93;;;12.90;98.20;;;;;;5028758;28;20459;-83
2023/10/24 06:23:37;;;;;;;1.60;1.10;;;12.90;98.20;;;;;;5038317;28;20567;-82
2023/10/24 06:26:04;;;;;;;1.50;1.00;;;12.90;98.20;;;;;;5008137;28;20910;-82
2023/10/24 06:28:31;;;;;;;1.57;1.00;;;12.90;98.20;;;;;;5020054;28;20463;-82
2023/10/24 06:30:58;;;;;;;1.60;1.20;;;12.90;98.20;;;;;;5023893;28;20983;-83
2023/10/24 06:33:25;;;;;;;1.50;1.00;;;12.80;98.20;;;;;;5047953;28;20521;-83
2023/10/24 06:35:52;;;;;;;1.53;1.00;;;12.80;98.20;;;;;;5024072;28;20493;-80
2023/10/24 06:38:19;;;;;;;1.60;1.10;;;12.80;98.20;;;;;;5044778;28;20463;-82
2023/10/24 06:40:47;;;;;;;1.57;1.00;;;12.80;98.20;;;;;;5032155;28;20455;-82
2023/10/24 06:43:14;;;;;;;1.50;1.00;;;12.80;98.20;;;;;;5020293;28;20494;-82
2023/10/24 06:45:43;;;;;;;1.57;1.10;;;12.80;98.20;;;;;;5031352;28;21360;-83
2023/10/24 06:48:11;;;;;;;1.53;0.97;;;12.90;98.20;;;;;;5037151;28;20467;-83
2023/10/24 06:50:39;;;;;;;1.57;1.07;;;12.90;98.20;;;;;;5031515;28;20462;-83
2023/10/24 06:53:06;;;;;;;1.53;1.07;;;12.90;98.20;;;;;;5038777;28;21097;-81
2023/10/24 06:55:33;;;;;;;1.57;1.00;;;12.90;98.20;;;;;;5030861;28;20477;-82
2023/10/24 06:58:01;;;;;;;1.50;1.00;;;12.90;98.20;;;;;;5031452;28;20479;-82
2023/10/24 07:00:28;;;;;;;1.50;1.00;;;12.90;98.20;;;;;;5027698;28;20467;-83
2023/10/24 07:02:55;;;;;;;1.53;1.00;;;12.90;98.20;;;;;;5039430;28;20470;-83
2023/10/24 07:05:22;;;;;;;1.57;1.00;;;13.00;98.20;;;;;;5031224;28;20477;-81
2023/10/24 07:07:49;;;;;;;1.57;1.00;;;12.90;98.20;;;;;;5025585;28;20544;-82
2023/10/24 07:10:16;;;;;;;1.57;1.03;;;12.90;98.20;;;;;;5029859;28;20679;-82
2023/10/24 07:12:42;;;;;;;1.60;1.00;;;13.00;98.20;;;;;;5029499;28;20619;-83
2023/10/24 07:15:11;;;;;;;1.60;1.10;;;13.00;98.20;;;;;;5032688;28;20490;-80
2023/10/24 07:17:38;;;;;;;1.57;1.00;;;13.00;98.20;;;;;;5027922;28;20478;-82
2023/10/24 07:20:05;;;;;;;1.60;1.10;;;13.00;98.20;;;;;;5028940;28;20470;-82
2023/10/24 07:22:32;;;;;;;1.53;1.00;;;13.00;98.20;;;;;;5035688;28;20496;-81
2023/10/24 07:24:59;;;;;;;1.60;1.10;;;13.10;98.20;;;;;;5044910;28;20539;-79
2023/10/24 07:27:26;;;;;;;1.57;1.00;;;13.10;98.20;;;;;;5032641;28;20479;-80
2023/10/24 07:29:53;;;;;;;1.57;1.00;;;13.10;98.20;;;;;;5022666;28;20464;-81
2023/10/24 07:32:21;;;;;;;2.03;1.83;;;13.10;98.20;;;;;;5027111;28;20478;-80
2023/10/24 07:34:48;;;;;;;1.60;1.00;;;13.10;98.20;;;;;;5034435;28;20467;-83
2023/10/24 07:37:15;;;;;;;1.53;1.00;;;13.20;98.20;;;;;;5031606;28;20486;-82
2023/10/24 07:39:42;;;;;;;1.60;1.00;;;13.20;98.20;;;;;;5036516;28;20486;-82
2023/10/24 07:42:09;;;;;;;1.53;1.00;;;13.20;98.20;;;;;;5019463;28;20485;-83
2023/10/24 07:44:36;;;;;;;1.50;1.00;;;13.30;98.20;;;;;;5030049;28;20487;-82
2023/10/24 07:47:03;;;;;;;1.50;1.10;;;13.30;98.20;;;;;;5023373;28;20909;-82
2023/10/24 07:49:34;;;;;;;1.57;1.00;;;13.30;98.20;;;;;;5029352;28;20460;-81
2023/10/24 07:52:01;;;;;;;1.57;1.00;;;13.30;98.20;;;;;;5016611;28;20474;-84
2023/10/24 07:54:29;;;;;;;1.60;1.10;;;13.30;98.20;;;;;;5036215;28;20542;-82
2023/10/24 07:56:55;;;;;;;1.57;1.00;;;13.30;98.20;;;;;;5028238;28;20486;-82
2023/10/24 07:59:22;;;;;;;1.60;1.10;;;13.40;98.20;;;;;;5030259;28;20770;-82
2023/10/24 08:01:49;;;;;;;1.57;1.00;;;13.40;98.20;;;;;;5020203;28;20467;-85
2023/10/24 08:04:16;;;;;;;1.57;1.00;;;13.40;98.20;;;;;;5030942;28;20488;-85
2023/10/24 08:06:44;;;;;;;1.57;1.00;;;13.50;98.20;;;;;;5014295;28;20483;-82
2023/10/24 08:09:11;;;;;;;1.57;1.00;;;13.50;98.20;;;;;;5026757;28;20478;-80
2023/10/24 08:11:37;;;;;;;1.50;1.00;;;13.50;98.20;;;;;;5023665;28;20493;-79
2023/10/24 08:14:05;;;;;;;1.57;1.00;;;13.50;98.20;;;;;;5042458;28;20455;-82
2023/10/24 08:16:32;;;;;;;1.50;1.07;;;13.60;98.20;;;;;;5023848;28;20621;-78
2023/10/24 08:18:59;;;;;;;1.53;1.00;;;13.60;98.20;;;;;;5031433;28;21223;-80
2023/10/24 08:21:26;;;;;;;1.60;1.10;;;13.60;98.20;;;;;;5029754;28;21028;-81
2023/10/24 08:23:56;;;;;;;1.60;1.10;;;13.70;98.20;;;;;;5038306;28;20499;-78
2023/10/24 08:26:23;;;;;;;1.53;0.90;;;13.70;98.20;;;;;;5023420;28;20540;-79
2023/10/24 08:28:50;;;;;;;1.60;1.10;;;13.70;98.20;;;;;;5045785;28;20459;-80
2023/10/24 08:31:17;;;;;;;1.60;1.00;;;13.80;98.20;;;;;;5028704;28;20481;-80
2023/10/24 08:33:43;;;;;;;1.50;1.00;;;13.80;98.20;;;;;;5038789;28;20459;-80
2023/10/24 08:36:10;;;;;;;1.57;1.00;;;13.80;98.20;;;;;;5025530;28;20474;-80
2023/10/24 08:38:37;;;;;;;1.53;1.00;;;13.90;98.20;;;;;;5043301;28;20462;-80
2023/10/24 08:41:06;;;;;;;1.60;1.00;;;13.90;98.20;;;;;;5021040;28;20492;-80
2023/10/24 08:43:34;;;;;;;1.60;1.00;;;14.00;98.20;;;;;;5033799;28;20494;-82
2023/10/24 08:46:02;;;;;;;1.57;1.00;;;14.00;98.20;;;;;;5022725;28;20487;-83
2023/10/24 08:48:31;;;;;;;1.60;1.10;;;14.00;98.20;;;;;;5037024;28;20541;-81
2023/10/24 08:50:58;;;;;;;1.57;1.00;;;14.10;98.20;;;;;;5018958;28;20455;-81
2023/10/24 08:53:26;;;;;;;1.60;1.10;;;14.10;98.20;;;;;;5043091;28;20955;-79
2023/10/24 08:55:57;;;;;;;1.60;1.10;;;14.10;98.20;;;;;;5018538;28;20487;-80
2023/10/24 08:58:28;;;;;;;1.53;1.00;;;14.20;98.20;;;;;;5046235;28;20538;-81
2023/10/24 09:00:55;;;;;;;1.57;1.00;;;14.20;98.20;;;;;;5022037;28;20467;-80
2023/10/24 09:03:24;;;;;;;1.50;0.90;;;14.30;98.20;;;;;;5045670;28;20890;-81
2023/10/24 09:05:55;;;;;;;1.60;1.00;;;14.40;98.20;;;;;;5019875;28;20487;-82
2023/10/24 09:08:26;;;;;;;1.50;0.97;;;14.50;98.20;;;;;;5042365;28;20493;-82
2023/10/24 09:10:53;;;;;;;1.60;1.00;;;14.60;98.20;;;;;;5019778;28;20908;-82
2023/10/24 09:13:20;;;;;;;1.53;1.00;;;14.70;98.20;;;;;;5047092;28;20462;-82
2023/10/24 09:16:05;;;;;;;1.53;1.00;;;14.70;98.20;;;;;;5029746;28;20491;-83
2023/10/24 09:18:35;;;;;;;1.50;1.00;;;14.80;98.20;;;;;;5038779;28;20821;-82
2023/10/24 09:21:02;;;;;;;1.60;1.07;;;14.80;98.20;;;;;;5024223;28;20633;-82
2023/10/24 09:23:29;;;;;;;1.50;1.00;;;14.90;98.20;;;;;;5036165;28;20865;-81
2023/10/24 09:25:56;;;;;;;1.50;0.90;;;14.90;98.20;;;;;;5021928;28;20482;-83
2023/10/24 09:28:23;;;;;;;1.50;0.90;;;14.90;98.20;;;;;;5042776;28;20474;-82
2023/10/24 09:30:50;;;;;;;1.57;1.00;;;15.00;98.20;;;;;;5022694;28;20546;-82
2023/10/24 09:33:18;;;;;;;1.53;1.00;;;15.00;98.20;;;;;;5043308;28;20883;-83
2023/10/24 09:35:44;;;;;;;1.53;1.00;;;15.00;98.20;;;;;;5029121;28;20484;-82
2023/10/24 09:38:12;;;;;;;1.60;1.00;;;15.00;98.20;;;;;;5015356;28;20514;-81
2023/10/24 09:40:40;;;;;;;1.60;1.07;;;15.00;98.20;;;;;;5029354;28;20495;-82
2023/10/24 09:43:12;;;;;;;1.57;1.00;;;15.00;98.20;;;;;;5035543;28;20899;-82
2023/10/24 09:45:42;;;;;;;1.53;1.00;;;15.00;98.20;;;;;;5031894;28;20487;-82
2023/10/24 09:48:11;;;;;;;1.53;0.90;;;15.00;98.20;;;;;;5035319;28;20490;-84
2023/10/24 09:50:41;;;;;;;1.50;1.00;;;15.10;98.20;;;;;;5033570;28;20930;-82
2023/10/24 09:53:09;;;;;;;1.53;1.00;;;15.10;98.20;;;;;;5033593;28;20471;-81
2023/10/24 09:55:36;;;;;;;1.57;1.00;;;15.20;98.20;;;;;;5034555;28;20487;-81
2023/10/24 09:58:04;;;;;;;1.60;1.00;;;15.20;98.20;;;;;;5032983;28;20478;-82
2023/10/24 10:00:32;;;;;;;1.57;1.00;;;15.30;98.20;;;;;;5030267;28;20474;-80
2023/10/24 10:03:00;;;;;;;1.53;1.00;;;15.30;98.20;;;;;;5040131;28;20485;-80
2023/10/24 10:05:30;;;;;;;1.50;1.00;;;15.40;98.20;;;;;;5035874;28;20499;-81
2023/10/24 10:08:00;;;;;;;1.50;1.00;;;15.60;98.20;;;;;;5029779;28;20478;-80
2023/10/24 10:10:28;;;;;;;1.57;1.00;;;15.70;98.20;;;;;;5032550;28;20459;-81
2023/10/24 10:13:00;;;;;;;1.53;1.00;;;15.80;98.20;;;;;;5036077;28;21070;-80
2023/10/24 10:15:51;;;;;;;1.57;1.00;;;16.00;98.20;;;;;;5029008;28;20456;-82
2023/10/24 10:18:30;;;;;;;1.57;1.00;;;16.10;98.20;;;;;;5014231;28;20507;-79
2023/10/24 10:21:03;;;;;;;1.57;1.00;;;16.20;98.20;;;;;;5016426;28;20571;-80
2023/10/24 10:23:58;;;;;;;1.53;0.90;;;16.10;98.20;;;;;;5047238;28;20491;-80
2023/10/24 10:26:39;;;;;;;1.53;0.90;;;16.10;98.20;;;;;;5031942;28;20492;-82
2023/10/24 10:29:15;;;;;;;1.57;0.90;;;16.20;98.20;;;;;;5043321;28;20452;-83
2023/10/24 10:32:00;;;;;;;1.57;0.90;;;16.30;98.20;;;;;;5028132;28;20484;-82
2023/10/24 10:34:34;;;;;;;1.53;1.00;;;16.30;98.20;;;;;;5037616;28;20942;-81
2023/10/24 10:37:01;;;;;;;1.50;0.90;;;16.40;98.20;;;;;;5027499;28;20478;-79
2023/10/24 10:39:29;;;;;;;1.60;1.00;;;16.50;98.20;;;;;;5040839;28;20779;-81
2023/10/24 10:41:57;;;;;;;1.50;0.90;;;16.40;98.20;;;;;;5028767;28;20477;-80
2023/10/24 10:44:38;;;;;;;1.57;0.90;;;16.50;98.20;;;;;;5040422;28;20487;-80
2023/10/24 10:47:06;;;;;;;1.53;0.93;;;16.50;98.20;;;;;;5032413;28;21050;-80
2023/10/24 10:49:47;;;;;;;1.53;0.90;;;16.50;98.20;;;;;;5036299;28;20492;-81
2023/10/24 10:52:42;;;;;;;1.50;0.90;;;16.40;98.20;;;;;;5034072;28;20519;-79
2023/10/24 10:55:39;;;;;;;1.53;0.90;;;16.40;98.20;;;;;;5035644;28;20482;-81
2023/10/24 10:58:21;;;;;;;1.50;0.90;;;16.40;98.20;;;;;;5036103;28;20486;-79
2023/10/24 11:01:02;;;;;;;1.57;1.00;;;16.30;98.20;;;;;;5028723;28;20995;-80
2023/10/24 11:03:39;;;;;;;1.53;1.00;;;16.20;98.20;;;;;;5045214;28;20475;-81
2023/10/24 11:06:15;;;;;;;1.53;1.00;;;16.20;98.20;;;;;;5025932;28;20509;-80
2023/10/24 11:08:42;;;;;;;1.53;0.93;;;16.10;98.20;;;;;;5046067;28;20466;-83
2023/10/24 11:11:11;;;;;;;1.70;1.30;;;15.90;98.20;;;;;;5022486;28;20863;-80
2023/10/24 11:13:41;;;;;;;1.57;1.00;;;15.80;98.20;;;;;;5031104;28;20484;-83
2023/10/24 11:16:09;;;;;;;1.53;1.00;;;15.60;98.20;;;;;;5020810;28;20483;-80
2023/10/24 11:18:37;;;;;;;1.50;1.00;;;15.50;98.20;;;;;;5030100;28;20855;-80
2023/10/24 11:21:05;;;;;;;1.53;1.00;;;15.50;98.20;;;;;;5023761;28;20462;-81
2023/10/24 11:23:33;;;;;;;1.50;1.00;;;15.40;98.20;;;;;;5030129;28;20495;-81
2023/10/24 11:26:00;;;;;;;1.60;1.00;;;15.40;98.20;;;;;;5029216;28;20509;-78
2023/10/24 11:28:32;;;;;;;1.50;1.00;;;15.30;98.20;;;;;;5052704;28;20542;-79
2023/10/24 11:30:59;;;;;;;1.53;1.00;;;15.30;98.20;;;;;;5020584;28;20704;-81
2023/10/24 11:33:26;;;;;;;1.57;1.00;;;15.20;98.20;;;;;;5039603;28;20498;-82
2023/10/24 11:35:54;;;;;;;1.53;1.00;;;15.20;98.20;;;;;;5017710;28;20604;-81
2023/10/24 11:38:38;;;;;;;1.50;1.00;;;15.10;98.20;;;;;;5021058;28;20491;-80
2023/10/24 11:41:05;;;;;;;1.60;1.03;;;15.10;98.20;;;;;;5015848;28;20463;-80
2023/10/24 11:43:37;;;;;;;1.50;1.00;;;15.10;98.20;;;;;;5038695;28;20466;-81
2023/10/24 11:46:04;;;;;;;1.50;0.97;;;15.10;98.20;;;;;;5018005;28;20517;-83
2023/10/24 11:48:35;;;;;;;1.53;0.97;;;15.10;98.20;;;;;;5036500;28;20989;-82
2023/10/24 11:51:15;;;;;;;1.60;1.10;;;15.00;98.20;;;;;;5023189;28;20468;-81
2023/10/24 11:53:42;;;;;;;1.50;1.00;;;15.00;98.20;;;;;;5044402;28;20832;-82
2023/10/24 11:56:17;;;;;;;1.53;1.00;;;14.90;98.20;;;;;;5020994;28;20532;-82
2023/10/24 11:58:50;;;;;;;1.60;1.10;;;14.90;98.20;;;;;;5041840;28;20463;-82
2023/10/24 12:01:45;;;;;;;1.50;1.00;;;14.80;98.20;;;;;;5013759;28;20484;-82
2023/10/24 12:04:19;;;;;;;1.53;1.00;;;14.70;98.20;;;;;;5007405;28;20837;-81
2023/10/24 12:06:45;;;;;;;1.53;1.00;;;14.60;98.20;;;;;;5013583;28;20696;-82
2023/10/24 12:09:12;;;;;;;1.53;1.10;;;14.60;98.20;;;;;;5024542;28;20508;-80
2023/10/24 12:11:39;;;;;;;1.57;0.90;;;14.50;98.20;;;;;;5026811;28;20678;-82
2023/10/24 12:14:07;;;;;;;1.57;1.10;;;14.50;98.20;;;;;;5036606;28;20937;-81
2023/10/24 12:16:35;;;;;;;1.57;1.00;;;14.50;98.20;;;;;;5029817;28;20486;-80
2023/10/24 12:19:02;;;;;;;1.57;1.10;;;14.50;98.20;;;;;;5037547;28;20579;-78
2023/10/24 12:21:29;;;;;;;1.60;1.10;;;14.50;98.20;;;;;;5026325;28;20493;-81
2023/10/24 12:23:56;;;;;;;1.60;1.00;;;14.50;98.20;;;;;;5045002;28;20473;-80
2023/10/24 12:26:23;;;;;;;1.50;1.00;;;14.40;98.20;;;;;;5024906;28;20490;-80
2023/10/24 12:28:50;;;;;;;1.60;1.00;;;14.30;98.20;;;;;;5039330;28;20459;-80
2023/10/24 12:31:18;;;;;;;1.53;1.00;;;14.30;98.20;;;;;;5020781;28;20568;-80
2023/10/24 12:33:44;;;;;;;1.60;1.10;;;14.20;98.20;;;;;;5036345;28;20550;-81
2023/10/24 12:36:20;;;;;;;1.50;1.00;;;14.10;98.20;;;;;;5019080;28;20483;-81
2023/10/24 12:38:47;;;;;;;1.57;1.00;;;14.10;98.20;;;;;;5023204;28;20459;-81
2023/10/24 12:41:18;;;;;;;1.57;1.10;;;14.10;98.20;;;;;;5023682;28;20524;-81
2023/10/24 12:43:48;;;;;;;1.50;0.90;;;14.20;98.20;;;;;;5039763;28;20465;-82
2023/10/24 12:48:59;;;;;;;1.50;1.00;;;14.30;98.20;;;;;;5037878;28;20496;-82
2023/10/24 12:51:30;;;;;;;1.57;1.00;;;14.40;98.20;;;;;;5025270;28;20480;-82
2023/10/24 12:54:03;;;;;;;1.60;1.10;;;14.40;98.20;;;;;;5037216;28;20468;-82
2023/10/24 12:56:47;;;;;;;1.50;0.90;;;14.40;98.20;;;;;;5024399;28;20482;-79
2023/10/24 12:59:14;;;;;;;1.60;1.00;;;14.40;98.20;;;;;;5039095;28;20568;-81
2023/10/24 13:01:41;;;;;;;1.57;1.00;;;14.40;98.20;;;;;;5029744;28;20512;-82